Time;durP1;ratioP1;P1;durP2;ratioP2;P2;SDS_P1;SDS_P2;PMS_P1;PMS_P2;Temp;Humidity;BMP_temperature;BMP_pressure;BME280_temperature;BME280_humidity;BME280_pressure;Samples;Min_cycle;Max_cycle;Signal;HPM_P1;HPM_P2
2020/12/15 00:02:08;;;;;;;14.05;6.28;;;;;;;19.41;51.22;100619.67;2322807;76;50692;-78
2020/12/15 00:05:10;;;;;;;11.93;6.78;;;;;;;19.41;51.24;100620.19;2322808;76;51635;-76
2020/12/15 00:08:12;;;;;;;16.42;7.15;;;;;;;19.40;51.22;100616.67;2322676;75;51475;-78
2020/12/15 00:11:18;;;;;;;13.90;6.65;;;;;;;19.38;51.25;100609.84;2322667;76;50846;-78
2020/12/15 00:14:21;;;;;;;16.90;6.90;;;;;;;19.38;51.31;100616.55;2322613;76;51528;-78
2020/12/15 00:17:23;;;;;;;16.37;6.70;;;;;;;19.36;51.35;100616.20;2323073;76;51492;-77
2020/12/15 00:20:25;;;;;;;12.18;6.45;;;;;;;19.35;51.28;100621.78;2322860;76;51412;-79
2020/12/15 00:23:27;;;;;;;13.03;5.80;;;;;;;19.34;51.29;100616.07;2322839;76;51456;-79
2020/12/15 00:26:30;;;;;;;11.97;6.53;;;;;;;19.32;51.26;100618.96;2322926;76;51435;-79
2020/12/15 00:29:32;;;;;;;12.18;6.00;;;;;;;19.32;51.22;100614.94;2322776;76;50278;-79
2020/12/15 00:32:34;;;;;;;12.55;6.62;;;;;;;19.31;51.24;100624.50;2322799;76;49915;-80
2020/12/15 00:35:36;;;;;;;13.10;6.22;;;;;;;19.29;51.24;100622.03;2322901;76;51418;-79
2020/12/15 00:38:38;;;;;;;14.65;6.03;;;;;;;19.30;51.26;100614.29;2322831;76;50614;-80
2020/12/15 00:41:41;;;;;;;11.60;5.70;;;;;;;19.27;51.28;100606.63;2322996;75;50677;-77
2020/12/15 00:44:43;;;;;;;13.72;6.85;;;;;;;19.26;51.36;100600.92;2322364;76;51545;-78
2020/12/15 00:47:45;;;;;;;9.98;6.00;;;;;;;19.26;51.30;100611.65;2322340;75;52445;-77
2020/12/15 00:50:47;;;;;;;11.70;6.28;;;;;;;19.26;51.35;100616.19;2322229;75;50456;-79
2020/12/15 00:53:49;;;;;;;11.08;6.17;;;;;;;19.24;51.35;100624.44;2322464;76;50463;-78
2020/12/15 00:56:52;;;;;;;12.63;6.12;;;;;;;19.23;51.40;100614.71;2322585;76;50718;-76
2020/12/15 00:59:55;;;;;;;10.60;5.92;;;;;;;19.23;51.37;100628.13;2322282;75;51547;-76
2020/12/15 01:02:57;;;;;;;11.12;5.92;;;;;;;19.21;51.44;100618.09;2322486;76;50296;-77
2020/12/15 01:05:59;;;;;;;10.98;5.62;;;;;;;19.19;51.43;100613.44;2322288;75;50717;-78
2020/12/15 01:09:02;;;;;;;13.93;6.65;;;;;;;19.18;51.44;100606.39;2322375;76;50789;-78
2020/12/15 01:12:10;;;;;;;11.25;5.87;;;;;;;19.18;51.41;100602.38;2322484;76;51589;-78
2020/12/15 01:15:12;;;;;;;12.85;6.45;;;;;;;19.17;51.50;100595.88;2321576;76;50745;-78
2020/12/15 01:18:14;;;;;;;12.82;5.80;;;;;;;19.14;51.51;100599.77;2322344;76;50758;-79
2020/12/15 01:21:18;;;;;;;15.50;6.65;;;;;;;19.14;51.47;100595.74;2322339;76;51497;-79
2020/12/15 01:24:21;;;;;;;11.45;5.50;;;;;;;19.13;51.46;100597.56;2321358;76;51478;-79
2020/12/15 01:27:23;;;;;;;13.85;6.25;;;;;;;19.13;51.44;100586.02;2322348;76;51541;-79
2020/12/15 01:30:25;;;;;;;12.53;5.97;;;;;;;19.11;51.55;100583.53;2322234;75;51480;-79
2020/12/15 01:33:28;;;;;;;11.73;5.87;;;;;;;19.10;51.58;100589.08;2322359;76;50223;-79
2020/12/15 01:36:30;;;;;;;17.15;5.90;;;;;;;19.09;51.58;100578.86;2322511;76;50708;-80
2020/12/15 01:39:32;;;;;;;16.23;6.25;;;;;;;19.08;51.61;100585.23;2322310;76;51566;-80
2020/12/15 01:42:35;;;;;;;11.70;6.15;;;;;;;19.10;51.54;100587.73;2320816;76;51491;-80
2020/12/15 01:45:37;;;;;;;13.40;6.17;;;;;;;19.09;51.50;100583.41;2322199;76;50326;-79
2020/12/15 01:48:39;;;;;;;11.25;5.53;;;;;;;19.09;51.51;100576.19;2322867;76;50762;-79
2020/12/15 01:51:41;;;;;;;9.50;5.75;;;;;;;19.07;51.58;100570.69;2323028;76;50682;-80
2020/12/15 01:54:44;;;;;;;15.25;5.80;;;;;;;19.06;51.57;100573.89;2322235;76;50369;-79
2020/12/15 01:57:46;;;;;;;10.35;5.28;;;;;;;19.06;51.56;100569.00;2300090;76;50743;-79
2020/12/15 02:00:48;;;;;;;12.15;5.78;;;;;;;19.05;51.52;100570.86;2322209;76;50248;-80
2020/12/15 02:03:52;;;;;;;11.78;6.12;;;;;;;19.03;51.52;100568.87;2322341;76;51503;-79
2020/12/15 02:06:54;;;;;;;11.80;5.58;;;;;;;19.03;51.59;100568.05;2321475;76;50409;-79
2020/12/15 02:09:56;;;;;;;9.65;5.37;;;;;;;19.02;51.54;100559.69;2322084;76;50696;-79
2020/12/15 02:12:58;;;;;;;10.88;5.33;;;;;;;19.01;51.54;100558.01;2322235;76;51615;-79
2020/12/15 02:16:01;;;;;;;11.60;5.72;;;;;;;19.01;51.60;100563.38;2322327;76;51520;-79
2020/12/15 02:19:03;;;;;;;10.32;5.83;;;;;;;19.00;51.58;100555.84;2322104;76;50366;-79
2020/12/15 02:22:05;;;;;;;10.82;5.45;;;;;;;18.99;51.67;100560.08;2322132;76;51441;-79
2020/12/15 02:25:09;;;;;;;8.68;5.15;;;;;;;18.97;51.71;100559.42;2322239;76;50276;-79
2020/12/15 02:28:11;;;;;;;9.30;5.70;;;;;;;18.98;51.65;100564.58;2322492;76;50243;-81
2020/12/15 02:31:13;;;;;;;12.30;5.60;;;;;;;18.97;51.60;100563.45;2322937;76;50681;-81
2020/12/15 02:34:15;;;;;;;11.30;5.40;;;;;;;18.97;51.58;100566.95;2323091;76;51446;-79
2020/12/15 02:37:18;;;;;;;9.60;5.62;;;;;;;18.95;51.69;100562.28;2323153;76;50251;-79
2020/12/15 02:40:20;;;;;;;8.90;5.85;;;;;;;18.95;51.65;100569.50;2323086;76;49731;-79
2020/12/15 02:43:22;;;;;;;12.13;5.60;;;;;;;18.93;51.66;100581.25;2282298;76;50704;-79
2020/12/15 02:46:24;;;;;;;9.93;5.90;;;;;;;18.93;51.69;100579.91;2282067;78;50293;-79
2020/12/15 02:49:27;;;;;;;11.50;5.50;;;;;;;18.93;51.66;100571.88;2282012;78;50735;-79
2020/12/15 02:52:29;;;;;;;14.30;5.60;;;;;;;18.92;51.64;100568.02;2281858;78;50376;-79
2020/12/15 02:55:31;;;;;;;11.25;5.58;;;;;;;18.91;51.63;100567.72;2281527;78;50698;-80
2020/12/15 02:58:35;;;;;;;11.68;5.70;;;;;;;18.90;51.65;100565.52;2281383;78;50446;-80
2020/12/15 03:01:41;;;;;;;10.05;5.70;;;;;;;18.91;51.71;100566.37;2281523;78;51496;-79
2020/12/15 03:04:43;;;;;;;9.25;5.20;;;;;;;18.91;51.68;100571.22;2281821;77;51588;-80
2020/12/15 03:07:45;;;;;;;11.97;5.40;;;;;;;18.88;51.77;100578.30;2281912;78;51499;-80
2020/12/15 03:10:48;;;;;;;10.80;5.03;;;;;;;18.87;51.65;100576.62;2282404;78;51429;-79
2020/12/15 03:13:50;;;;;;;12.05;6.10;;;;;;;18.87;51.72;100577.96;2281636;78;50375;-79
2020/12/15 03:16:53;;;;;;;11.97;5.37;;;;;;;18.85;51.63;100571.12;2281552;78;50738;-79
2020/12/15 03:19:55;;;;;;;13.28;5.47;;;;;;;18.85;51.63;100574.62;2281331;78;50663;-79
2020/12/15 03:22:57;;;;;;;10.15;5.08;;;;;;;18.84;51.67;100565.45;2281369;78;51442;-80
2020/12/15 03:25:59;;;;;;;9.88;5.20;;;;;;;18.84;51.66;100564.94;2281326;78;50594;-79
2020/12/15 03:29:01;;;;;;;8.83;5.53;;;;;;;18.83;51.64;100557.92;2281241;78;50152;-80
2020/12/15 03:32:04;;;;;;;10.65;5.25;;;;;;;18.84;51.64;100561.43;2281343;78;50665;-79
2020/12/15 03:35:06;;;;;;;13.60;5.15;;;;;;;18.82;51.62;100550.88;2281245;77;50687;-80
2020/12/15 03:38:08;;;;;;;9.08;5.12;;;;;;;18.79;51.67;100557.96;2281340;78;50611;-80
2020/12/15 03:41:11;;;;;;;11.35;5.67;;;;;;;18.79;51.62;100549.92;2291777;76;50627;-80
2020/12/15 03:44:13;;;;;;;9.85;4.95;;;;;;;18.79;51.59;100563.33;2322080;76;50373;-79
2020/12/15 03:47:15;;;;;;;9.18;5.40;;;;;;;18.78;51.64;100561.67;2322142;76;50746;-79
2020/12/15 03:50:17;;;;;;;9.10;5.33;;;;;;;18.77;51.68;100565.35;2322062;76;51593;-79
2020/12/15 03:53:19;;;;;;;8.35;4.85;;;;;;;18.76;51.74;100559.68;2322053;76;51460;-78
2020/12/15 03:56:23;;;;;;;11.00;5.47;;;;;;;18.78;51.67;100563.50;2322123;76;51548;-78
2020/12/15 03:59:25;;;;;;;11.08;5.72;;;;;;;18.76;51.71;100563.70;2321946;76;50662;-79
2020/12/15 04:02:27;;;;;;;9.58;5.12;;;;;;;18.76;51.68;100570.92;2322114;76;51374;-79
2020/12/15 04:05:30;;;;;;;8.38;4.95;;;;;;;18.76;51.68;100582.98;2322146;76;51516;-79
2020/12/15 04:08:32;;;;;;;6.67;4.72;;;;;;;18.74;51.66;100581.78;2322152;76;51432;-79
2020/12/15 04:11:34;;;;;;;9.45;5.70;;;;;;;18.75;51.69;100590.16;2322330;76;50247;-79
2020/12/15 04:14:36;;;;;;;9.83;5.17;;;;;;;18.74;51.69;100593.84;2322220;76;50411;-78
2020/12/15 04:17:38;;;;;;;9.63;5.05;;;;;;;18.73;51.69;100592.19;2322310;76;50704;-79
2020/12/15 04:20:40;;;;;;;8.15;5.10;;;;;;;18.71;51.72;100592.87;2322233;76;51561;-80
2020/12/15 04:23:43;;;;;;;9.80;5.17;;;;;;;18.70;51.71;100591.20;2322176;76;51495;-79
2020/12/15 04:26:45;;;;;;;10.85;5.15;;;;;;;18.68;51.71;100582.02;2322339;76;51432;-80
2020/12/15 04:29:47;;;;;;;7.87;4.90;;;;;;;18.69;51.64;100586.86;2322034;76;51522;-79
2020/12/15 04:32:49;;;;;;;8.35;4.47;;;;;;;18.69;51.71;100584.19;2322267;76;51484;-79
2020/12/15 04:35:51;;;;;;;10.32;5.03;;;;;;;18.68;51.63;100586.04;2322128;76;50350;-79
2020/12/15 04:38:54;;;;;;;11.88;5.37;;;;;;;18.67;51.67;100587.55;2322085;76;50357;-78
2020/12/15 04:41:56;;;;;;;7.62;5.35;;;;;;;18.67;51.68;100591.57;2301137;76;50696;-80
2020/12/15 04:44:58;;;;;;;10.72;5.20;;;;;;;18.65;51.73;100593.12;2260004;78;51506;-79
2020/12/15 04:48:10;;;;;;;8.28;4.80;;;;;;;18.67;51.68;100592.91;2281463;78;51412;-80
2020/12/15 04:51:12;;;;;;;7.83;5.12;;;;;;;18.66;51.66;100587.24;2281688;78;50748;-79
2020/12/15 04:54:17;;;;;;;7.78;5.12;;;;;;;18.66;51.65;100585.90;2281781;78;50393;-79
2020/12/15 04:57:21;;;;;;;9.55;5.08;;;;;;;18.65;51.65;100583.73;2281778;77;50450;-79
2020/12/15 05:00:24;;;;;;;8.15;5.55;;;;;;;18.65;51.63;100581.54;2281740;77;51584;-79
2020/12/15 05:03:26;;;;;;;9.45;5.10;;;;;;;18.64;51.64;100574.02;2281839;78;51509;-80
2020/12/15 05:06:28;;;;;;;8.85;4.95;;;;;;;18.64;51.66;100581.23;2281628;77;50610;-80
2020/12/15 05:09:31;;;;;;;10.95;4.75;;;;;;;18.62;51.67;100579.23;2281496;78;51666;-79
2020/12/15 05:12:33;;;;;;;10.03;5.28;;;;;;;18.61;51.68;100580.27;2311074;76;50681;-79
2020/12/15 05:15:36;;;;;;;8.33;5.03;;;;;;;18.62;51.62;100581.91;2322427;76;50343;-80
2020/12/15 05:18:38;;;;;;;11.22;4.83;;;;;;;18.61;51.67;100586.97;2322630;76;50304;-80
2020/12/15 05:21:40;;;;;;;9.68;5.17;;;;;;;18.60;51.71;100579.92;2322594;76;50715;-81
2020/12/15 05:24:50;;;;;;;6.97;4.72;;;;;;;18.59;51.78;100584.45;2322929;76;51620;-81
2020/12/15 05:27:53;;;;;;;9.13;4.87;;;;;;;18.58;51.84;100581.98;2323328;76;50548;-81
2020/12/15 05:31:01;;;;;;;9.80;4.50;;;;;;;18.58;51.88;100589.50;2323337;76;50739;-79
2020/12/15 05:34:04;;;;;;;10.95;5.15;;;;;;;18.56;51.81;100576.80;2323068;76;50769;-79
2020/12/15 05:37:06;;;;;;;8.03;4.75;;;;;;;18.56;51.89;100582.66;2322839;76;51489;-78
2020/12/15 05:40:08;;;;;;;8.60;5.08;;;;;;;18.52;51.92;100573.31;2322645;76;50368;-78
2020/12/15 05:43:11;;;;;;;9.10;5.33;;;;;;;18.50;52.07;100588.26;2284853;76;50357;-78
2020/12/15 05:46:15;;;;;;;8.05;4.70;;;;;;;18.50;51.95;100594.95;2281752;78;51558;-78
2020/12/15 05:49:21;;;;;;;6.62;4.72;;;;;;;18.49;52.05;100595.95;2260540;78;51666;-79
2020/12/15 05:52:28;;;;;;;9.28;4.62;;;;;;;18.47;52.18;100594.81;2281467;77;51562;-80
2020/12/15 05:55:30;;;;;;;6.20;4.40;;;;;;;18.46;52.33;100591.80;2281087;77;50653;-79
2020/12/15 05:58:35;;;;;;;8.38;4.35;;;;;;;18.49;52.34;100588.74;2281594;77;51529;-79
2020/12/15 06:01:37;;;;;;;7.60;5.28;;;;;;;18.55;52.20;100585.00;2282501;76;53114;-79
2020/12/15 06:04:40;;;;;;;8.98;4.85;;;;;;;18.58;52.14;100586.83;2293992;76;50463;-80
2020/12/15 06:07:42;;;;;;;8.45;4.40;;;;;;;18.70;51.94;100585.84;2322994;76;51492;-79
2020/12/15 06:10:44;;;;;;;8.70;4.28;;;;;;;18.75;51.82;100589.30;2274435;76;50720;-79
2020/12/15 06:13:46;;;;;;;7.55;4.85;;;;;;;18.81;51.75;100581.91;2322017;76;50290;-79
2020/12/15 06:16:49;;;;;;;5.72;3.92;;;;;;;18.83;51.71;100571.33;2322403;76;50618;-78
2020/12/15 06:19:52;;;;;;;8.00;5.03;;;;;;;18.86;51.69;100572.29;2322181;76;50482;-78
2020/12/15 06:22:55;;;;;;;6.58;4.20;;;;;;;18.90;51.61;100570.88;2322275;76;50739;-78
2020/12/15 06:25:57;;;;;;;10.65;4.80;;;;;;;18.96;51.57;100568.47;2322161;76;51578;-77
2020/12/15 06:29:05;;;;;;;8.85;4.62;;;;;;;19.01;51.69;100574.95;2321877;76;50314;-77
2020/12/15 06:32:17;;;;;;;10.58;4.60;;;;;;;19.14;51.16;100570.27;2321912;76;50399;-77
2020/12/15 06:35:23;;;;;;;10.98;5.03;;;;;;;19.24;51.24;100574.81;2322933;76;50392;-78
2020/12/15 06:38:25;;;;;;;10.58;4.92;;;;;;;19.20;51.32;100568.67;2321616;75;50500;-77
2020/12/15 06:41:28;;;;;;;17.98;5.22;;;;;;;19.25;51.39;100574.30;2317229;76;50316;-78
2020/12/15 06:44:36;;;;;;;12.65;5.30;;;;;;;19.34;51.25;100571.80;2321994;75;50738;-77
2020/12/15 06:47:39;;;;;;;10.00;4.47;;;;;;;19.40;51.36;100565.70;2322162;76;50317;-77
2020/12/15 06:50:43;;;;;;;11.80;4.92;;;;;;;19.48;51.33;100560.72;2318958;76;51547;-77
2020/12/15 06:53:45;;;;;;;12.60;5.12;;;;;;;19.57;51.25;100570.28;2314147;76;50774;-78
2020/12/15 06:56:50;;;;;;;11.55;4.85;;;;;;;19.64;51.07;100566.34;2314515;76;51524;-78
2020/12/15 06:59:53;;;;;;;10.20;5.17;;;;;;;19.68;50.91;100565.80;2317404;76;51796;-78
2020/12/15 07:02:55;;;;;;;8.73;4.60;;;;;;;19.70;50.89;100561.05;2322474;75;51575;-78
2020/12/15 07:05:57;;;;;;;13.78;4.90;;;;;;;19.74;50.82;100554.28;2312469;75;51587;-78
2020/12/15 07:09:03;;;;;;;12.35;4.15;;;;;;;19.79;50.72;100555.87;2266068;76;50372;-77
2020/12/15 07:12:16;;;;;;;19.37;4.72;;;;;;;19.82;50.65;100552.48;2297227;75;50391;-77
2020/12/15 07:15:18;;;;;;;13.58;5.15;;;;;;;19.88;50.57;100547.67;2300928;76;50364;-77
2020/12/15 07:18:20;;;;;;;11.40;4.70;;;;;;;19.87;50.54;100546.03;2316044;75;50748;-77
2020/12/15 07:21:23;;;;;;;13.53;5.03;;;;;;;19.97;50.28;100547.34;2321349;76;50720;-78
2020/12/15 07:24:26;;;;;;;10.70;4.15;;;;;;;20.26;49.70;100550.86;2316827;76;51491;-78
2020/12/15 07:27:28;;;;;;;15.85;4.30;;;;;;;20.26;49.61;100548.69;2291833;76;51539;-77
2020/12/15 07:30:30;;;;;;;9.23;4.08;;;;;;;20.30;49.52;100548.63;2313615;75;50657;-78
2020/12/15 07:33:32;;;;;;;8.30;4.80;;;;;;;20.40;49.26;100558.52;2314566;75;51236;-78
2020/12/15 07:36:36;;;;;;;7.85;4.60;;;;;;;20.37;49.31;100566.94;2314222;75;51486;-77
2020/12/15 07:39:38;;;;;;;10.13;4.90;;;;;;;20.35;49.34;100559.09;2315730;75;50439;-78
2020/12/15 07:42:40;;;;;;;9.88;4.20;;;;;;;20.37;49.27;100556.19;2324472;75;50433;-77
2020/12/15 07:45:48;;;;;;;12.05;4.47;;;;;;;20.39;49.23;100547.42;2322596;75;50697;-77
2020/12/15 07:48:47;;;;;;;9.55;4.87;;;;;;;20.43;49.11;100547.36;2322015;76;22813;-78
2020/12/15 07:51:51;;;;;;;9.50;4.47;;;;;;;20.44;49.03;100553.86;2322512;76;50350;-78
2020/12/15 07:55:01;;;;;;;9.50;4.55;;;;;;;20.43;49.05;100552.73;2322481;75;51700;-77
2020/12/15 07:58:04;;;;;;;11.05;4.55;;;;;;;20.54;48.80;100550.86;2322250;76;50191;-76
2020/12/15 08:01:06;;;;;;;10.05;4.25;;;;;;;20.47;48.93;100558.02;2322066;76;51561;-76
2020/12/15 08:04:13;;;;;;;7.72;4.42;;;;;;;20.56;48.77;100560.91;2322048;76;51471;-76
2020/12/15 08:07:16;;;;;;;7.22;4.35;;;;;;;20.53;48.81;100566.65;2321734;76;51585;-76
2020/12/15 08:10:24;;;;;;;8.35;4.47;;;;;;;20.59;48.71;100555.13;2321443;76;50773;-76
2020/12/15 08:13:26;;;;;;;9.05;4.58;;;;;;;20.61;48.65;100563.83;2282567;78;50651;-76
2020/12/15 08:16:28;;;;;;;6.70;3.85;;;;;;;20.58;48.73;100569.61;2283198;77;51557;-76
2020/12/15 08:19:30;;;;;;;8.18;4.50;;;;;;;20.65;48.57;100565.59;2282843;78;51522;-77
2020/12/15 08:22:34;;;;;;;11.30;4.33;;;;;;;20.64;48.61;100565.28;2283266;76;51428;-77
2020/12/15 08:25:44;;;;;;;11.83;4.45;;;;;;;20.65;48.57;100571.82;2295352;75;51538;-77
2020/12/15 08:28:46;;;;;;;8.15;4.33;;;;;;;20.73;48.37;100571.31;2309250;77;51617;-77
2020/12/15 08:31:48;;;;;;;10.05;4.30;;;;;;;20.73;48.30;100580.23;2304477;77;51531;-77
2020/12/15 08:35:01;;;;;;;6.67;4.08;;;;;;;20.76;48.16;100580.36;2304833;77;51532;-77
2020/12/15 08:38:05;;;;;;;6.72;4.22;;;;;;;20.77;48.05;100576.63;2275957;76;51503;-77
2020/12/15 08:41:09;;;;;;;8.13;4.08;;;;;;;20.87;47.79;100577.09;2290936;76;51624;-76
2020/12/15 08:44:13;;;;;;;9.48;3.85;;;;;;;20.85;48.08;100579.97;2321612;76;51512;-77
2020/12/15 08:47:17;;;;;;;9.33;4.25;;;;;;;20.87;48.08;100570.37;2320458;76;51523;-76
2020/12/15 08:50:19;;;;;;;7.62;3.80;;;;;;;20.94;47.96;100568.55;2321709;75;50352;-75
2020/12/15 08:53:22;;;;;;;10.20;4.47;;;;;;;20.92;47.90;100567.91;2321854;76;51531;-76
2020/12/15 08:56:24;;;;;;;8.48;4.58;;;;;;;20.96;47.83;100569.67;2321835;76;50366;-76
2020/12/15 08:59:26;;;;;;;6.67;4.12;;;;;;;20.91;47.94;100572.98;2321500;75;50348;-77
2020/12/15 09:02:28;;;;;;;9.30;4.50;;;;;;;20.92;47.87;100567.91;2321598;76;50691;-77
2020/12/15 09:05:30;;;;;;;6.00;4.25;;;;;;;20.92;47.89;100571.12;2321825;76;51642;-77
2020/12/15 09:08:33;;;;;;;7.12;4.33;;;;;;;20.95;47.82;100563.47;2321957;75;51536;-77
2020/12/15 09:11:35;;;;;;;9.25;4.78;;;;;;;20.98;47.70;100552.30;2322010;76;51476;-77
2020/12/15 09:14:38;;;;;;;7.00;4.08;;;;;;;20.97;47.69;100568.14;2321999;76;50640;-77
2020/12/15 09:17:40;;;;;;;8.30;3.90;;;;;;;21.04;47.50;100570.83;2322037;76;50355;-76
2020/12/15 09:20:43;;;;;;;8.10;4.58;;;;;;;21.03;47.50;100561.11;2321828;76;51498;-76
2020/12/15 09:23:54;;;;;;;9.10;4.25;;;;;;;21.08;47.38;100563.51;2322005;76;50734;-77
2020/12/15 09:26:56;;;;;;;7.87;3.98;;;;;;;21.09;47.34;100565.19;2322102;76;50272;-77
2020/12/15 09:29:59;;;;;;;8.78;4.40;;;;;;;21.11;47.22;100560.94;2321755;75;52266;-77
2020/12/15 09:33:03;;;;;;;9.85;4.50;;;;;;;21.12;47.19;100556.38;2321982;75;50701;-77
2020/12/15 09:36:05;;;;;;;5.97;3.95;;;;;;;21.11;47.19;100558.23;2323312;76;50651;-76
2020/12/15 09:39:07;;;;;;;6.35;4.25;;;;;;;21.09;47.20;100550.39;2322285;76;51541;-77
2020/12/15 09:42:10;;;;;;;6.47;4.33;;;;;;;21.10;47.19;100535.07;2322018;75;50631;-77
2020/12/15 09:45:12;;;;;;;6.33;4.08;;;;;;;21.17;47.00;100527.00;2321913;75;51476;-77
2020/12/15 09:48:14;;;;;;;7.30;4.25;;;;;;;21.16;46.98;100520.80;2321814;75;50691;-75
2020/12/15 09:51:16;;;;;;;6.45;3.87;;;;;;;21.25;46.77;100529.53;2321883;75;51506;-77
2020/12/15 09:54:18;;;;;;;6.03;4.30;;;;;;;21.19;46.89;100535.19;2322080;75;50714;-77
2020/12/15 09:57:20;;;;;;;5.85;4.40;;;;;;;21.17;46.89;100529.20;2322045;76;50177;-76
2020/12/15 10:00:23;;;;;;;6.53;4.33;;;;;;;21.22;46.71;100537.98;2321943;75;50333;-76
2020/12/15 10:03:25;;;;;;;6.75;4.20;;;;;;;21.15;46.78;100550.61;2322184;75;50652;-77
2020/12/15 10:06:27;;;;;;;5.20;3.70;;;;;;;21.08;46.85;100543.33;2322036;75;51379;-76
2020/12/15 10:09:29;;;;;;;8.70;4.00;;;;;;;21.08;46.81;100550.58;2322292;75;51346;-76
2020/12/15 10:12:31;;;;;;;5.40;4.42;;;;;;;21.07;46.82;100556.48;2321903;76;51560;-77
2020/12/15 10:15:34;;;;;;;5.00;4.03;;;;;;;21.03;46.91;100555.73;2322621;75;50237;-77
2020/12/15 10:18:36;;;;;;;8.50;4.50;;;;;;;21.00;46.97;100551.59;2322731;76;51524;-77
2020/12/15 10:21:39;;;;;;;6.22;4.25;;;;;;;21.00;46.96;100541.34;2322765;75;49954;-76
2020/12/15 10:24:41;;;;;;;6.92;4.50;;;;;;;20.97;47.04;100545.80;2321949;76;50691;-77
2020/12/15 10:27:43;;;;;;;6.33;4.55;;;;;;;20.95;47.05;100540.60;2321894;75;51524;-76
2020/12/15 10:30:45;;;;;;;6.47;4.58;;;;;;;21.05;46.77;100534.33;2321855;76;52273;-76
2020/12/15 10:33:47;;;;;;;6.03;4.47;;;;;;;21.01;46.84;100528.20;2322191;76;51385;-77
2020/12/15 10:36:50;;;;;;;5.45;3.95;;;;;;;21.00;46.88;100519.30;2322453;76;50319;-76
2020/12/15 10:39:55;;;;;;;5.67;4.12;;;;;;;21.04;46.73;100523.75;2322217;75;50212;-78
2020/12/15 10:42:57;;;;;;;5.22;4.10;;;;;;;21.06;46.66;100517.14;2322631;76;51650;-78
2020/12/15 10:45:59;;;;;;;5.65;4.53;;;;;;;21.02;46.74;100509.70;2322368;76;52365;-77
2020/12/15 10:49:01;;;;;;;5.85;4.30;;;;;;;21.07;46.63;100519.34;2322359;76;50153;-77
2020/12/15 10:52:04;;;;;;;7.62;4.37;;;;;;;21.12;46.49;100507.95;2322713;75;50331;-77
2020/12/15 10:55:07;;;;;;;5.22;4.37;;;;;;;21.09;46.53;100508.69;2322774;76;51511;-77
2020/12/15 10:58:09;;;;;;;6.35;4.20;;;;;;;21.16;46.36;100503.83;2322831;76;50268;-78
2020/12/15 11:01:11;;;;;;;6.20;4.20;;;;;;;21.15;46.34;100511.59;2322978;75;50360;-77
2020/12/15 11:04:13;;;;;;;5.65;4.12;;;;;;;21.09;46.47;100513.22;2322983;76;50047;-77
2020/12/15 11:07:16;;;;;;;5.70;4.50;;;;;;;21.08;46.42;100517.77;2323095;76;50370;-78
2020/12/15 11:10:18;;;;;;;5.55;4.22;;;;;;;21.09;46.33;100512.72;2322882;76;51535;-77
2020/12/15 11:13:20;;;;;;;7.87;4.37;;;;;;;21.06;46.33;100518.48;2282765;76;50168;-78
2020/12/15 11:16:22;;;;;;;5.90;4.30;;;;;;;21.06;46.32;100513.62;2282132;78;50314;-77
2020/12/15 11:19:25;;;;;;;6.05;4.83;;;;;;;20.99;46.46;100516.31;2282139;78;50680;-77
2020/12/15 11:22:27;;;;;;;8.23;4.67;;;;;;;20.99;46.49;100516.31;2282553;78;50738;-77
2020/12/15 11:25:29;;;;;;;5.35;4.28;;;;;;;21.01;46.44;100518.27;2282764;78;51438;-76
2020/12/15 11:28:31;;;;;;;5.83;3.95;;;;;;;21.04;46.39;100508.47;2282607;77;51497;-78
2020/12/15 11:31:34;;;;;;;5.05;4.20;;;;;;;21.04;46.37;100520.58;2282187;78;51486;-76
2020/12/15 11:34:36;;;;;;;6.85;4.45;;;;;;;21.01;46.44;100519.61;2282292;78;51517;-78
2020/12/15 11:37:41;;;;;;;5.00;4.00;;;;;;;21.02;46.38;100521.28;2282189;77;50328;-77
2020/12/15 11:40:42;;;;;;;5.67;4.03;;;;;;;21.02;46.33;100523.98;2286232;76;22453;-77
2020/12/15 11:43:44;;;;;;;5.22;4.10;;;;;;;21.02;46.39;100520.47;2323440;76;50893;-77
2020/12/15 11:46:46;;;;;;;5.10;4.05;;;;;;;21.00;46.45;100523.34;2323632;76;51544;-79
2020/12/15 11:49:48;;;;;;;6.28;4.60;;;;;;;21.04;46.35;100515.69;2323528;75;51502;-78
2020/12/15 11:52:51;;;;;;;6.00;4.15;;;;;;;21.12;46.13;100522.25;2323503;76;50657;-77
2020/12/15 11:55:53;;;;;;;6.12;3.85;;;;;;;21.09;46.18;100526.17;2323121;75;51624;-78
2020/12/15 11:58:55;;;;;;;5.33;4.10;;;;;;;21.08;46.19;100524.50;2322816;75;50287;-78
2020/12/15 12:01:57;;;;;;;5.05;4.08;;;;;;;21.08;46.11;100516.43;2322867;76;50368;-78
2020/12/15 12:05:00;;;;;;;5.58;4.25;;;;;;;21.06;46.16;100515.80;2323023;76;50743;-77
2020/12/15 12:08:02;;;;;;;7.60;4.47;;;;;;;21.07;46.04;100524.72;2322824;76;50686;-78
2020/12/15 12:11:04;;;;;;;5.62;4.15;;;;;;;21.02;46.16;100519.94;2322331;76;50344;-79
2020/12/15 12:14:07;;;;;;;5.45;4.35;;;;;;;21.06;46.11;100524.39;2322221;76;50600;-78
2020/12/15 12:17:09;;;;;;;6.47;4.58;;;;;;;21.03;46.16;100516.20;2322291;76;51501;-78
2020/12/15 12:20:11;;;;;;;5.65;4.28;;;;;;;21.03;46.16;100521.59;2322081;76;51511;-78
2020/12/15 12:23:13;;;;;;;5.80;4.15;;;;;;;21.04;46.12;100527.30;2322126;76;51486;-76
2020/12/15 12:26:16;;;;;;;5.92;4.58;;;;;;;21.06;46.11;100535.97;2322084;76;50220;-76
2020/12/15 12:29:18;;;;;;;5.58;4.30;;;;;;;21.12;45.95;100524.09;2321912;76;51455;-75
2020/12/15 12:32:21;;;;;;;5.37;4.08;;;;;;;21.10;46.03;100535.07;2322162;76;50382;-78
2020/12/15 12:35:23;;;;;;;5.92;4.40;;;;;;;21.16;45.89;100536.94;2322103;76;50437;-77
2020/12/15 12:38:25;;;;;;;4.95;4.12;;;;;;;21.14;45.97;100531.45;2322042;76;51575;-77
2020/12/15 12:41:27;;;;;;;5.17;4.15;;;;;;;21.09;45.99;100531.56;2322081;75;52120;-77
2020/12/15 12:44:29;;;;;;;7.40;4.10;;;;;;;21.14;45.91;100520.69;2321969;76;51359;-78
2020/12/15 12:47:31;;;;;;;6.67;4.50;;;;;;;21.13;45.96;100521.73;2322216;76;50341;-78
2020/12/15 12:50:34;;;;;;;5.22;4.03;;;;;;;21.14;45.90;100516.65;2322014;76;50409;-77
2020/12/15 12:53:41;;;;;;;5.25;4.28;;;;;;;21.13;45.86;100527.11;2322124;76;50657;-77
2020/12/15 12:56:43;;;;;;;6.10;4.28;;;;;;;21.09;45.92;100532.05;2321942;76;22688;-77
2020/12/15 12:59:45;;;;;;;8.05;4.05;;;;;;;21.08;45.90;100539.82;2322006;76;50659;-76
2020/12/15 13:02:47;;;;;;;5.33;4.33;;;;;;;21.05;45.92;100549.13;2322043;76;51531;-77
2020/12/15 13:05:50;;;;;;;6.05;4.70;;;;;;;21.05;45.95;100542.39;2320160;76;50733;-77
2020/12/15 13:08:52;;;;;;;5.25;4.05;;;;;;;21.05;45.96;100544.27;2320425;76;50688;-78
2020/12/15 13:11:54;;;;;;;5.53;4.10;;;;;;;21.05;45.99;100555.03;2318359;76;50800;-78
2020/12/15 13:14:58;;;;;;;6.20;4.42;;;;;;;21.03;46.00;100549.83;2313998;76;51505;-78
2020/12/15 13:18:00;;;;;;;5.08;4.17;;;;;;;21.02;46.07;100541.98;2314377;76;22337;-77
2020/12/15 13:21:02;;;;;;;5.95;4.67;;;;;;;21.05;45.99;100534.33;2313978;75;50386;-74
2020/12/15 13:24:05;;;;;;;5.50;4.33;;;;;;;21.02;46.07;100532.05;2313804;75;50503;-73
2020/12/15 13:27:07;;;;;;;7.62;5.10;;;;;;;21.04;46.04;100541.24;2318157;76;50517;-73
2020/12/15 13:30:09;;;;;;;8.13;4.70;;;;;;;21.14;45.75;100544.38;2315046;75;50428;-75
2020/12/15 13:33:11;;;;;;;6.78;5.00;;;;;;;21.14;45.81;100547.06;2316068;76;50598;-74
2020/12/15 13:36:13;;;;;;;7.70;5.22;;;;;;;21.19;45.75;100538.39;2317703;75;51479;-73
2020/12/15 13:39:16;;;;;;;6.42;4.60;;;;;;;21.12;46.02;100545.61;2321678;76;51393;-74
2020/12/15 13:42:18;;;;;;;7.08;4.87;;;;;;;21.14;46.17;100547.06;2320795;75;51508;-73
2020/12/15 13:45:20;;;;;;;9.05;6.08;;;;;;;21.10;46.39;100545.83;2319469;76;51498;-73
2020/12/15 13:48:22;;;;;;;11.68;7.30;;;;;;;21.05;46.70;100549.64;2313931;76;51502;-73
2020/12/15 13:51:24;;;;;;;11.22;6.58;;;;;;;21.03;46.88;100557.08;2318716;75;50165;-73
2020/12/15 13:54:27;;;;;;;11.08;7.92;;;;;;;21.04;46.97;100554.69;2321966;75;50304;-73
2020/12/15 13:57:30;;;;;;;12.73;8.55;;;;;;;20.99;47.13;100559.36;2321468;76;50357;-74
2020/12/15 14:00:35;;;;;;;13.00;8.45;;;;;;;21.00;47.24;100577.14;2319408;75;50726;-74
2020/12/15 14:03:36;;;;;;;13.80;8.43;;;;;;;20.99;47.27;100571.46;2319342;76;22258;-73
2020/12/15 14:06:38;;;;;;;12.03;8.78;;;;;;;21.06;47.12;100575.50;2314934;75;50726;-75